Time;durP1;ratioP1;P1;durP2;ratioP2;P2;SDS_P1;SDS_P2;PMS_P1;PMS_P2;Temp;Humidity;BMP_temperature;BMP_pressure;BME280_temperature;BME280_humidity;BME280_pressure;Samples;Min_cycle;Max_cycle;Signal;HPM_P1;HPM_P2
2022/07/09 00:01:41;;;;;;;8.05;1.13;;;;;;;20.81;63.21;99555.69;10421254;28;20451;-74
2022/07/09 00:06:42;;;;;;;2.75;1.30;;;;;;;21.70;63.58;99711.09;10421233;28;20041;-73
2022/07/09 00:11:42;;;;;;;4.30;1.42;;;;;;;20.93;63.87;99590.63;10420531;28;20053;-73
2022/07/09 00:16:43;;;;;;;3.40;1.10;;;;;;;21.61;64.18;99710.72;10420745;28;20053;-74
2022/07/09 00:21:44;;;;;;;4.38;1.20;;;;;;;21.68;64.46;99715.91;10419769;28;20052;-74
2022/07/09 00:26:45;;;;;;;3.33;1.20;;;;;;;21.75;64.09;99731.94;10419800;28;20064;-74
2022/07/09 00:31:46;;;;;;;3.80;1.20;;;;;;;21.30;64.13;99665.53;10419731;28;20045;-74
2022/07/09 00:36:46;;;;;;;2.60;1.15;;;;;;;21.68;64.27;99725.91;10419405;28;20053;-74
2022/07/09 00:41:47;;;;;;;2.15;1.08;;;;;;;21.31;64.17;99683.38;10419403;28;20049;-74
2022/07/09 00:46:48;;;;;;;4.07;1.25;;;;;;;21.42;64.63;99704.06;10415007;28;20567;-75
2022/07/09 00:51:49;;;;;;;4.95;1.13;;;;;;;21.57;64.88;99752.06;10418321;28;20132;-74
2022/07/09 00:56:52;;;;;;;5.55;1.17;;;;;;;20.56;65.57;99596.72;10418301;28;20041;-74
2022/07/09 01:01:54;;;;;;;2.47;1.10;;;;;;;20.63;65.58;99631.59;10418126;28;20046;-74
2022/07/09 01:06:57;;;;;;;7.22;1.50;;;;;;;21.24;66.41;99759.22;10418630;28;20378;-74
2022/07/09 01:11:58;;;;;;;23.97;2.27;;;;;;;19.74;66.07;99551.63;10418063;28;20052;-74
2022/07/09 01:17:01;;;;;;;12.60;1.70;;;;;;;20.34;67.53;99657.88;10417898;28;20136;-74
2022/07/09 01:22:03;;;;;;;10.63;1.67;;;;;;;20.91;67.52;99766.38;10416723;28;20076;-74
2022/07/09 01:27:04;;;;;;;34.05;3.70;;;;;;;20.69;68.44;99769.03;10418386;28;20520;-73
2022/07/09 01:32:05;;;;;;;12.15;2.17;;;;;;;20.75;68.67;99796.91;10417569;28;20124;-74
2022/07/09 01:37:06;;;;;;;17.33;2.13;;;;;;;20.61;69.34;99787.53;10416747;28;20152;-74
2022/07/09 01:42:07;;;;;;;32.20;2.92;;;;;;;20.38;69.48;99756.97;10416360;28;20132;-74
2022/07/09 01:47:08;;;;;;;32.10;2.50;;;;;;;19.83;70.00;99682.22;10416524;28;20056;-74
2022/07/09 01:52:09;;;;;;;9.32;2.00;;;;;;;20.52;70.12;99787.97;10416943;28;20041;-75
2022/07/09 01:57:10;;;;;;;20.13;2.60;;;;;;;20.21;69.67;99737.28;10415835;28;20159;-75
2022/07/09 02:02:10;;;;;;;61.40;4.78;;;;;;;20.51;70.20;99789.00;10415817;28;20034;-74
2022/07/09 02:07:15;;;;;;;10.13;2.10;;;;;;;20.15;70.33;99738.25;10415532;28;20457;-75
2022/07/09 02:12:17;;;;;;;6.85;1.98;;;;;;;19.67;70.44;99653.38;10414804;28;20045;-74
2022/07/09 02:17:18;;;;;;;17.35;2.05;;;;;;;20.44;70.17;99750.56;10416189;28;20037;-74
2022/07/09 02:22:18;;;;;;;15.25;1.80;;;;;;;20.83;69.39;99782.19;10414935;28;20049;-75
2022/07/09 02:27:19;;;;;;;8.02;1.98;;;;;;;21.06;68.94;99789.22;10429986;28;20037;-75
2022/07/09 02:32:20;;;;;;;13.25;2.00;;;;;;;21.28;69.13;99771.16;10414733;28;20041;-75
2022/07/09 02:37:21;;;;;;;21.17;3.55;;;;;;;21.41;67.87;99732.16;10414918;28;20081;-75
2022/07/09 02:42:21;;;;;;;25.42;9.55;;;;;;;22.02;66.98;99746.25;10430078;28;20124;-75
2022/07/09 02:47:22;;;;;;;44.90;21.75;;;;;;;21.81;66.15;99639.00;10414031;28;20054;-75
2022/07/09 02:52:23;;;;;;;39.72;18.90;;;;;;;22.98;64.85;99742.56;10414219;28;20037;-75
2022/07/09 02:57:24;;;;;;;15.10;9.07;;;;;;;23.39;64.89;99766.28;10415066;28;20099;-75
2022/07/09 03:02:25;;;;;;;5.80;2.90;;;;;;;23.60;64.36;99737.31;10410752;28;20129;-74
2022/07/09 03:07:25;;;;;;;50.53;6.00;;;;;;;24.29;62.75;99714.28;10403744;28;20045;-75
2022/07/09 03:12:26;;;;;;;11.07;2.88;;;;;;;24.76;60.03;99669.66;10385744;28;20034;-75
2022/07/09 03:17:27;;;;;;;19.67;3.58;;;;;;;25.88;58.22;99742.47;10373043;28;20422;-74
2022/07/09 03:22:27;;;;;;;11.85;3.33;;;;;;;26.93;55.34;99771.97;10396538;28;20041;-75
2022/07/09 03:27:28;;;;;;;11.07;3.25;;;;;;;27.81;52.99;99735.09;10410800;28;20033;-76
2022/07/09 03:32:29;;;;;;;9.20;3.20;;;;;;;28.81;49.71;99718.31;10379951;28;20045;-75
2022/07/09 03:37:30;;;;;;;9.50;2.63;;;;;;;29.71;47.44;99740.47;10406012;28;20057;-74
2022/07/09 03:42:31;;;;;;;16.27;3.38;;;;;;;30.01;45.12;99657.53;10413385;28;20084;-75
2022/07/09 03:47:31;;;;;;;11.57;3.20;;;;;;;31.11;43.65;99751.84;10399471;28;20056;-76
2022/07/09 03:52:33;;;;;;;24.67;2.97;;;;;;;31.29;43.26;99749.09;10371496;28;20053;-76
2022/07/09 03:57:33;;;;;;;14.07;3.08;;;;;;;31.07;41.94;99632.91;10372084;28;20375;-75
2022/07/09 04:02:34;;;;;;;6.18;1.67;;;;;;;31.84;41.09;99710.88;10372167;28;20045;-76
2022/07/09 04:07:35;;;;;;;5.00;1.60;;;;;;;31.82;40.93;99748.81;10371712;28;20042;-76
2022/07/09 04:12:36;;;;;;;5.72;1.63;;;;;;;31.50;41.81;99750.16;10371648;28;20034;-76
2022/07/09 04:17:37;;;;;;;13.02;2.08;;;;;;;31.86;41.09;99751.75;10371187;28;20421;-76
2022/07/09 04:22:38;;;;;;;6.25;1.77;;;;;;;31.68;39.92;99654.03;10371940;28;20555;-76
2022/07/09 04:27:39;;;;;;;6.50;1.80;;;;;;;31.71;39.77;99702.81;10371854;28;20128;-78
2022/07/09 04:32:40;;;;;;;7.93;2.45;;;;;;;32.11;38.97;99738.34;10378378;28;20441;-77
2022/07/09 04:37:41;;;;;;;14.63;2.88;;;;;;;32.05;38.04;99744.00;10413225;28;20053;-74
2022/07/09 04:42:42;;;;;;;7.23;2.10;;;;;;;31.17;38.60;99681.16;10385728;28;20057;-80
2022/07/09 04:47:43;;;;;;;6.25;1.70;;;;;;;31.11;38.17;99738.13;10403517;28;20131;-76
2022/07/09 04:52:44;;;;;;;12.13;1.80;;;;;;;30.30;38.43;99615.13;10418543;28;20060;-74
2022/07/09 04:57:45;;;;;;;29.98;3.33;;;;;;;30.85;38.62;99724.34;10418545;28;20041;-83
2022/07/09 05:02:46;;;;;;;23.50;2.35;;;;;;;30.86;38.49;99714.97;10418335;28;20083;-78
2022/07/09 05:07:47;;;;;;;17.80;2.40;;;;;;;31.04;38.06;99709.53;10430148;28;20099;-80
2022/07/09 05:12:48;;;;;;;17.17;2.22;;;;;;;30.80;37.14;99686.09;10418205;28;20049;-81
2022/07/09 05:17:49;;;;;;;11.45;1.60;;;;;;;30.51;37.83;99705.00;10418084;28;20405;-82
2022/07/09 05:22:49;;;;;;;24.45;2.40;;;;;;;30.12;38.80;99699.16;10418096;28;20044;-80
2022/07/09 05:27:50;;;;;;;13.93;1.80;;;;;;;29.69;38.68;99699.69;10418197;28;20041;-80
2022/07/09 05:32:51;;;;;;;10.40;2.15;;;;;;;29.70;38.94;99681.34;10417290;28;20041;-82
2022/07/09 05:37:52;;;;;;;13.30;5.00;;;;;;;29.16;39.02;99569.06;10417911;28;20065;-78
2022/07/09 05:42:53;;;;;;;19.27;6.38;;;;;;;30.02;38.64;99674.78;10412295;28;20041;-81
2022/07/09 05:47:54;;;;;;;13.48;2.75;;;;;;;29.85;38.96;99644.56;10417818;28;20045;-77
2022/07/09 05:52:55;;;;;;;18.02;2.15;;;;;;;30.24;37.27;99668.47;10414053;28;20046;-73
2022/07/09 05:57:55;;;;;;;7.88;1.58;;;;;;;30.12;36.58;99665.47;10395481;28;20053;-79
2022/07/09 06:02:56;;;;;;;18.42;2.63;;;;;;;29.62;36.01;99542.53;10381055;28;20092;-76
2022/07/09 06:07:57;;;;;;;15.40;2.63;;;;;;;30.20;36.23;99629.94;10375101;28;20038;-78
2022/07/09 06:12:58;;;;;;;21.85;2.03;;;;;;;30.40;34.45;99630.50;10376906;28;20044;-76
2022/07/09 06:17:58;;;;;;;21.98;3.15;;;;;;;30.61;34.55;99638.94;10375256;28;20517;-71
2022/07/09 06:22:59;;;;;;;15.88;1.55;;;;;;;30.02;34.05;99538.66;10374670;28;20038;-76
2022/07/09 06:28:00;;;;;;;9.38;1.65;;;;;;;30.79;34.18;99621.44;10385596;28;20091;-72
2022/07/09 06:33:01;;;;;;;10.75;1.90;;;;;;;30.95;32.89;99601.75;10415501;28;20045;-77
2022/07/09 06:38:02;;;;;;;15.25;1.75;;;;;;;31.37;32.41;99622.09;10415156;28;20057;-73
2022/07/09 06:43:04;;;;;;;39.75;4.35;;;;;;;31.50;31.91;99612.06;10414018;28;20071;-71
2022/07/09 06:48:06;;;;;;;12.45;2.20;;;;;;;31.54;31.72;99618.53;10403620;28;20060;-75
2022/07/09 06:53:07;;;;;;;13.15;1.77;;;;;;;31.53;32.21;99592.22;10415051;28;20509;-75
2022/07/09 06:58:08;;;;;;;16.80;2.30;;;;;;;31.68;31.53;99597.19;10396143;28;20631;-70
2022/07/09 07:03:08;;;;;;;41.95;3.85;;;;;;;31.71;31.22;99592.97;10391527;28;20046;-75
2022/07/09 07:08:09;;;;;;;22.55;3.10;;;;;;;31.73;31.46;99587.97;10413303;28;20041;-73
2022/07/09 07:13:10;;;;;;;12.43;2.20;;;;;;;32.08;32.00;99613.41;10378578;28;20050;-77
2022/07/09 07:18:11;;;;;;;17.30;2.10;;;;;;;31.74;31.00;99515.44;10401343;28;20456;-76
2022/07/09 07:23:12;;;;;;;9.15;1.75;;;;;;;31.91;30.61;99573.06;10379636;28;20049;-71
2022/07/09 07:28:13;;;;;;;6.32;1.58;;;;;;;31.42;30.62;99511.38;10383008;28;20041;-72
2022/07/09 07:33:13;;;;;;;47.13;3.03;;;;;;;32.26;31.62;99595.69;10371911;28;20409;-72
2022/07/09 07:38:14;;;;;;;61.50;3.05;;;;;;;32.42;30.87;99598.69;10371798;28;20081;-74
2022/07/09 07:43:15;;;;;;;16.35;1.75;;;;;;;31.66;30.57;99467.66;10371043;28;20038;-72
2022/07/09 07:48:16;;;;;;;23.30;2.35;;;;;;;31.99;30.63;99481.59;10369782;28;20038;-70
2022/07/09 07:53:17;;;;;;;19.20;2.20;;;;;;;32.83;30.09;99590.84;10372269;28;20038;-71
2022/07/09 07:58:18;;;;;;;12.65;1.88;;;;;;;32.96;30.82;99584.25;10372921;28;20038;-73
2022/07/09 08:03:19;;;;;;;52.78;4.43;;;;;;;33.12;30.85;99563.28;10371057;28;20041;-73
2022/07/09 08:08:20;;;;;;;26.77;2.75;;;;;;;33.38;30.44;99568.50;10412084;28;20083;-73
2022/07/09 08:13:21;;;;;;;16.25;2.08;;;;;;;32.75;30.14;99471.50;10420650;28;20041;-73
2022/07/09 08:18:22;;;;;;;17.55;2.08;;;;;;;33.41;29.33;99567.84;10421577;28;20436;-72
2022/07/09 08:23:22;;;;;;;11.23;2.05;;;;;;;33.16;29.72;99528.44;10419544;28;20041;-73
2022/07/09 08:28:23;;;;;;;14.57;2.38;;;;;;;32.91;28.74;99455.19;10420066;28;20045;-76
2022/07/09 08:33:24;;;;;;;32.47;2.58;;;;;;;33.81;28.98;99566.47;10419759;28;20045;-72
2022/07/09 08:38:25;;;;;;;19.40;2.88;;;;;;;33.89;29.32;99549.00;10419122;28;20053;-74
2022/07/09 08:43:29;;;;;;;12.82;2.38;;;;;;;33.62;29.23;99487.13;10419277;28;20045;-73
2022/07/09 08:48:35;;;;;;;15.55;2.50;;;;;;;34.04;28.73;99509.81;10418617;28;20052;-75
2022/07/09 08:53:41;;;;;;;18.17;2.72;;;;;;;34.20;28.25;99548.47;10416286;28;20041;-73
2022/07/09 08:58:42;;;;;;;19.90;2.58;;;;;;;33.48;28.57;99420.56;10413621;28;20042;-73
2022/07/09 09:03:43;;;;;;;16.02;2.47;;;;;;;34.17;28.84;99513.34;10418926;28;20492;-71
2022/07/09 09:08:45;;;;;;;21.67;2.38;;;;;;;34.43;27.83;99521.22;10417377;28;20386;-75
2022/07/09 09:13:48;;;;;;;9.23;2.00;;;;;;;34.50;28.72;99507.66;10413289;28;20084;-76
2022/07/09 09:18:51;;;;;;;13.02;2.53;;;;;;;34.02;27.53;99421.13;10417287;28;20033;-74
2022/07/09 09:23:58;;;;;;;11.15;2.10;;;;;;;34.37;26.79;99508.00;10418123;28;20076;-75
2022/07/09 09:29:01;;;;;;;13.50;2.58;;;;;;;34.53;26.71;99495.13;10418635;28;20132;-77
2022/07/09 09:34:05;;;;;;;13.50;2.30;;;;;;;34.53;25.87;99504.19;10398856;28;20045;-76
2022/07/09 09:39:15;;;;;;;14.68;2.40;;;;;;;34.67;25.67;99487.28;10413456;28;20047;-74
2022/07/09 09:44:19;;;;;;;23.75;2.92;;;;;;;34.01;26.12;99361.63;10416578;28;20509;-74
2022/07/09 09:49:20;;;;;;;13.05;2.35;;;;;;;34.65;25.92;99453.72;10409243;28;20055;-77
2022/07/09 09:54:22;;;;;;;14.83;2.63;;;;;;;34.71;26.11;99468.09;10400111;28;20049;-75
2022/07/09 09:59:23;;;;;;;44.87;3.43;;;;;;;34.15;26.23;99368.75;10412740;28;20068;-72
2022/07/09 10:04:25;;;;;;;30.30;2.70;;;;;;;34.88;25.67;99445.72;10388464;28;20461;-74
2022/07/09 10:09:25;;;;;;;26.45;2.50;;;;;;;34.99;25.81;99460.56;10407147;28;20141;-76
2022/07/09 10:14:26;;;;;;;38.75;2.85;;;;;;;35.21;24.74;99474.97;10370087;28;20057;-75
2022/07/09 10:19:34;;;;;;;16.38;2.47;;;;;;;34.94;24.34;99432.44;10375614;28;20038;-74
2022/07/09 10:24:37;;;;;;;13.23;2.20;;;;;;;34.89;25.03;99427.97;10374201;28;20053;-78
2022/07/09 10:29:56;;;;;;;10.93;2.88;;;;;;;35.31;24.94;99455.13;10373192;28;20535;-88
2022/07/09 10:35:05;;;;;;;9.23;2.22;;;;;;;35.25;23.98;99431.69;10374005;28;20057;-79
2022/07/09 10:40:13;;;;;;;25.13;2.70;;;;;;;35.49;24.83;99447.28;10373589;28;20565;-82
2022/07/09 10:45:31;;;;;;;18.70;3.28;;;;;;;35.16;24.47;99409.00;10374197;28;20041;-73
2022/07/09 10:50:33;;;;;;;18.88;2.72;;;;;;;34.36;24.86;99328.00;10373166;28;20144;-78
2022/07/09 10:55:34;;;;;;;10.88;1.98;;;;;;;34.71;24.90;99393.59;10373506;28;20129;-80
2022/07/09 11:00:35;;;;;;;35.88;3.28;;;;;;;35.01;25.64;99410.56;10373163;28;20069;-77
2022/07/09 11:05:46;;;;;;;8.75;2.20;;;;;;;35.35;26.10;99409.06;10373983;28;20495;-74
2022/07/09 11:10:47;;;;;;;26.08;2.85;;;;;;;33.66;26.13;99137.53;10372407;28;20049;-72
2022/07/09 11:15:47;;;;;;;37.35;3.25;;;;;;;34.62;26.38;99282.63;10372821;28;20048;-69
2022/07/09 11:20:48;;;;;;;13.82;2.42;;;;;;;35.20;26.51;99415.41;10365422;28;20157;-74
2022/07/09 11:25:49;;;;;;;17.15;2.40;;;;;;;35.25;26.01;99395.81;10372565;28;20048;-73
2022/07/09 11:30:59;;;;;;;16.23;2.38;;;;;;;35.30;26.47;99400.25;10372310;28;20133;-73
2022/07/09 11:36:00;;;;;;;13.27;2.50;;;;;;;35.11;25.65;99365.88;10372972;28;20399;-75
2022/07/09 11:41:01;;;;;;;16.73;2.37;;;;;;;35.33;25.28;99389.31;10376538;28;20055;-74
2022/07/09 11:46:02;;;;;;;12.88;2.25;;;;;;;35.08;25.11;99349.25;10385256;28;20124;-74
2022/07/09 11:51:03;;;;;;;14.25;2.28;;;;;;;35.45;25.23;99371.84;10384634;28;20375;-76
2022/07/09 11:56:04;;;;;;;24.50;2.75;;;;;;;35.35;24.61;99378.69;10384922;28;20045;-75
2022/07/09 12:01:10;;;;;;;31.15;2.45;;;;;;;34.46;23.72;99244.78;10384935;28;20072;-76
2022/07/09 12:06:11;;;;;;;18.73;2.72;;;;;;;35.34;23.90;99360.53;10384902;28;20042;-76
2022/07/09 12:11:12;;;;;;;16.65;2.33;;;;;;;34.61;24.12;99237.69;10416474;28;20048;-82
2022/07/09 12:16:31;;;;;;;15.52;2.00;;;;;;;34.72;23.30;99266.34;10408561;28;20045;-78
2022/07/09 12:25:54;;;;;;;26.88;3.00;;;;;;;35.16;22.96;99356.53;10474994;27;20784;-74
2022/07/09 12:39:39;;;;;;;23.25;2.63;;;;;;;34.99;23.39;99336.38;10480655;28;20432;-81
2022/07/09 12:44:40;;;;;;;25.52;2.88;;;;;;;35.07;23.30;99353.97;10445536;28;20049;-76
2022/07/09 12:49:40;;;;;;;10.70;1.85;;;;;;;34.95;22.81;99335.50;10446361;28;20505;-75
2022/07/09 12:54:41;;;;;;;24.63;3.10;;;;;;;34.88;23.23;99324.31;10442784;28;20519;-74
2022/07/09 12:59:43;;;;;;;12.85;2.35;;;;;;;34.60;22.79;99295.97;10445681;28;20448;-74
2022/07/09 13:04:44;;;;;;;14.88;2.08;;;;;;;34.82;22.68;99330.41;10445414;28;20091;-75
2022/07/09 13:09:45;;;;;;;29.05;3.03;;;;;;;34.72;22.93;99309.69;10446760;28;20049;-76
2022/07/09 13:14:46;;;;;;;37.97;2.67;;;;;;;34.74;21.94;99324.72;10445399;28;20045;-80
2022/07/09 13:19:48;;;;;;;12.10;2.35;;;;;;;34.85;22.66;99330.53;10447573;28;20087;-79
2022/07/09 13:24:49;;;;;;;9.20;1.95;;;;;;;34.49;22.54;99282.69;10438382;28;20805;-82
2022/07/09 13:29:50;;;;;;;10.45;1.95;;;;;;;34.10;22.40;99215.47;10424386;28;20057;-75
2022/07/09 13:34:51;;;;;;;30.65;2.50;;;;;;;34.79;23.08;99323.66;10448170;28;20051;-74
2022/07/09 13:39:53;;;;;;;14.52;2.38;;;;;;;34.75;23.09;99333.81;10446155;28;20049;-76
2022/07/09 13:44:54;;;;;;;16.27;2.33;;;;;;;33.86;22.98;99214.44;10434717;28;20409;-74
2022/07/09 13:49:56;;;;;;;40.75;3.53;;;;;;;34.59;23.22;99308.16;10392534;28;20072;-76
2022/07/09 13:54:56;;;;;;;17.95;2.38;;;;;;;34.03;22.37;99227.09;10416819;28;20037;-76
2022/07/09 13:59:57;;;;;;;16.25;2.08;;;;;;;34.56;22.57;99306.91;10418772;28;20048;-73
2022/07/09 14:04:58;;;;;;;12.13;2.30;;;;;;;33.24;22.43;99133.19;10418710;28;20119;-73
2022/07/09 14:09:59;;;;;;;22.58;3.25;;;;;;;34.40;22.55;99317.06;10426447;28;20057;-74
2022/07/09 14:15:00;;;;;;;34.22;3.40;;;;;;;34.35;22.50;99311.84;10407936;28;20045;-71
2022/07/09 14:20:00;;;;;;;17.63;2.50;;;;;;;34.13;22.85;99280.91;10377457;28;20041;-75
2022/07/09 14:25:02;;;;;;;16.90;2.42;;;;;;;34.25;22.93;99313.13;10386604;28;20041;-72
2022/07/09 14:30:03;;;;;;;17.00;2.88;;;;;;;34.03;22.69;99284.97;10414203;28;20456;-73
2022/07/09 14:35:04;;;;;;;17.33;2.90;;;;;;;33.90;23.10;99288.13;10416728;28;20386;-73
2022/07/09 14:40:06;;;;;;;47.40;5.10;;;;;;;33.34;23.74;99187.72;10417053;28;20041;-72
2022/07/09 14:45:07;;;;;;;15.27;2.75;;;;;;;33.59;23.16;99232.53;10417234;28;20053;-71
2022/07/09 14:50:08;;;;;;;23.27;2.63;;;;;;;33.31;22.69;99201.41;10415691;28;20519;-72
2022/07/09 14:55:10;;;;;;;31.65;3.33;;;;;;;33.04;22.69;99178.97;10417025;28;20075;-73
2022/07/09 15:00:11;;;;;;;20.47;2.63;;;;;;;33.75;22.55;99311.69;10416058;28;20053;-72
2022/07/09 15:05:12;;;;;;;12.15;2.58;;;;;;;33.27;22.97;99223.31;10415974;28;20041;-73
2022/07/09 15:10:13;;;;;;;10.85;1.90;;;;;;;32.89;23.56;99177.69;10416555;28;20497;-72
2022/07/09 15:15:13;;;;;;;23.27;3.00;;;;;;;33.47;23.35;99295.84;10415823;28;20037;-72
2022/07/09 15:20:14;;;;;;;13.45;1.85;;;;;;;33.38;23.75;99293.22;10416024;28;20071;-72
2022/07/09 15:25:15;;;;;;;15.45;2.40;;;;;;;33.27;23.24;99292.13;10413452;28;20064;-73
2022/07/09 15:30:18;;;;;;;36.67;3.70;;;;;;;33.07;23.50;99288.34;10409194;28;20080;-73
2022/07/09 15:35:19;;;;;;;25.83;2.30;;;;;;;33.02;23.48;99305.06;10413598;28;20053;-72
2022/07/09 15:40:20;;;;;;;19.13;2.78;;;;;;;32.73;23.30;99287.59;10415408;28;20049;-71
2022/07/09 15:45:22;;;;;;;16.65;2.90;;;;;;;32.76;22.84;99310.88;10413140;28;20049;-76
2022/07/09 15:50:23;;;;;;;16.45;2.70;;;;;;;32.31;23.79;99264.94;10414632;28;20040;-74
2022/07/09 15:55:24;;;;;;;77.45;5.28;;;;;;;31.79;23.89;99214.00;10414613;28;20445;-72
2022/07/09 16:00:25;;;;;;;15.38;3.30;;;;;;;31.58;23.83;99210.47;10414704;28;20041;-75
2022/07/09 16:05:26;;;;;;;24.30;2.95;;;;;;;31.51;24.46;99221.19;10413512;28;20483;-72
2022/07/09 16:10:28;;;;;;;19.23;2.50;;;;;;;30.66;25.19;99124.25;10413344;28;20072;-73
2022/07/09 16:15:29;;;;;;;24.27;2.73;;;;;;;31.09;24.87;99221.13;10412131;28;20045;-71
2022/07/09 16:20:29;;;;;;;34.85;3.47;;;;;;;31.63;24.89;99324.78;10413629;28;20034;-72
2022/07/09 16:25:30;;;;;;;29.75;3.22;;;;;;;31.50;25.16;99332.09;10411991;28;20079;-71
2022/07/09 16:30:31;;;;;;;24.70;4.38;;;;;;;31.33;25.63;99343.97;10406389;28;20052;-71
2022/07/09 16:35:32;;;;;;;18.98;5.07;;;;;;;31.15;25.89;99348.72;10412775;28;20057;-72
2022/07/09 16:40:33;;;;;;;23.10;3.97;;;;;;;30.84;26.52;99321.56;10379053;28;20532;-72
2022/07/09 16:45:34;;;;;;;23.33;4.05;;;;;;;29.95;27.08;99220.69;10370677;28;20076;-72
2022/07/09 16:50:35;;;;;;;21.27;3.10;;;;;;;29.87;27.57;99226.16;10372354;28;20203;-72
2022/07/09 16:55:36;;;;;;;18.88;3.88;;;;;;;30.41;28.25;99352.59;10372016;28;20046;-72
2022/07/09 17:00:37;;;;;;;25.77;4.70;;;;;;;29.48;28.54;99242.38;10372479;28;20045;-71
2022/07/09 17:05:38;;;;;;;30.67;5.15;;;;;;;29.75;29.01;99314.41;10371004;28;20042;-73
2022/07/09 17:10:39;;;;;;;18.52;4.18;;;;;;;29.08;29.70;99249.91;10371703;28;20042;-72
2022/07/09 17:15:41;;;;;;;24.70;3.30;;;;;;;28.88;30.56;99264.91;10371087;28;20060;-73
2022/07/09 17:20:42;;;;;;;20.50;2.97;;;;;;;28.61;30.71;99244.06;10371326;28;20034;-72
2022/07/09 17:25:43;;;;;;;20.83;2.92;;;;;;;29.19;31.31;99354.31;10377810;28;20128;-71
2022/07/09 17:30:44;;;;;;;19.65;2.58;;;;;;;28.52;31.71;99282.25;10378448;28;20061;-72
2022/07/09 17:35:46;;;;;;;20.65;2.70;;;;;;;29.00;32.00;99384.59;10401721;28;20560;-72
2022/07/09 17:40:47;;;;;;;22.37;2.20;;;;;;;28.90;32.06;99399.34;10418875;28;20033;-71
2022/07/09 17:45:49;;;;;;;26.90;2.92;;;;;;;28.66;32.44;99386.81;10419867;28;20390;-71
2022/07/09 17:50:49;;;;;;;20.63;2.58;;;;;;;28.62;32.81;99391.28;10433970;28;20044;-72
2022/07/09 17:55:50;;;;;;;14.20;2.10;;;;;;;28.35;33.00;99378.53;10437367;28;20057;-72
2022/07/09 18:00:51;;;;;;;15.88;2.33;;;;;;;28.34;33.59;99398.75;10434599;28;20100;-71
2022/07/09 18:05:52;;;;;;;17.77;2.42;;;;;;;27.87;34.02;99357.22;10437714;28;20103;-71
2022/07/09 18:10:58;;;;;;;18.13;2.20;;;;;;;28.01;34.60;99389.97;10436363;28;20029;-72
2022/07/09 18:15:58;;;;;;;13.13;1.92;;;;;;;27.89;34.94;99398.69;10436051;28;20045;-73
2022/07/09 18:20:59;;;;;;;11.63;2.08;;;;;;;27.73;35.20;99390.00;10434956;28;20063;-72
2022/07/09 18:26:00;;;;;;;13.10;2.05;;;;;;;26.97;35.58;99298.78;10437171;28;20508;-72
2022/07/09 18:31:01;;;;;;;17.00;2.58;;;;;;;27.40;35.95;99388.47;10427005;28;20039;-72
2022/07/09 18:36:03;;;;;;;24.50;2.60;;;;;;;25.62;36.73;99129.06;10424563;28;20050;-72
2022/07/09 18:41:07;;;;;;;15.68;3.17;;;;;;;26.90;36.59;99340.06;10437664;28;20052;-72
2022/07/09 18:46:08;;;;;;;11.55;1.98;;;;;;;26.73;37.05;99326.19;10419958;28;20049;-72
2022/07/09 18:51:08;;;;;;;25.40;3.05;;;;;;;26.90;37.44;99367.31;10435878;28;20041;-72
2022/07/09 18:56:09;;;;;;;17.08;2.67;;;;;;;26.97;37.58;99383.25;10448072;28;20045;-74
2022/07/09 19:01:10;;;;;;;12.45;2.13;;;;;;;26.88;37.48;99383.13;10436477;28;20060;-73
2022/07/09 19:06:11;;;;;;;12.60;2.55;;;;;;;26.80;37.72;99383.81;10415398;28;20103;-72
2022/07/09 19:11:12;;;;;;;8.88;1.67;;;;;;;26.81;38.02;99378.09;10412149;28;20508;-72
2022/07/09 19:16:13;;;;;;;10.43;2.15;;;;;;;26.78;39.09;99380.59;10403916;28;20497;-72
2022/07/09 19:21:17;;;;;;;9.30;2.10;;;;;;;26.56;40.27;99367.59;10412165;28;20049;-71
2022/07/09 19:26:22;;;;;;;12.23;1.67;;;;;;;26.40;39.70;99358.84;10419476;28;20045;-72
2022/07/09 19:36:45;;;;;;;12.77;1.58;;;;;;;25.68;41.45;99293.78;10407592;28;20049;-73
2022/07/09 19:41:46;;;;;;;15.88;2.30;;;;;;;25.43;42.04;99265.84;10408776;28;20030;-72
2022/07/09 19:46:46;;;;;;;13.32;1.98;;;;;;;25.37;42.73;99290.63;10409015;28;20041;-72
2022/07/09 19:51:47;;;;;;;13.20;2.05;;;;;;;24.98;43.51;99256.31;10408192;28;20095;-72
2022/07/09 19:56:48;;;;;;;14.57;2.13;;;;;;;25.53;44.78;99367.41;10413224;28;20036;-72
2022/07/09 20:01:49;;;;;;;11.45;2.10;;;;;;;25.38;45.93;99377.34;10414131;28;20045;-72
2022/07/09 20:06:50;;;;;;;14.45;1.95;;;;;;;25.30;46.24;99379.91;10412733;28;20446;-71
2022/07/09 20:11:51;;;;;;;9.95;1.95;;;;;;;24.59;46.46;99281.72;10413608;28;20038;-72
2022/07/09 20:16:52;;;;;;;12.65;1.85;;;;;;;25.12;46.74;99384.13;10412592;28;20080;-73
2022/07/09 20:21:52;;;;;;;6.30;1.60;;;;;;;25.04;47.27;99389.09;10413025;28;20087;-72
2022/07/09 20:26:53;;;;;;;7.97;1.75;;;;;;;24.28;47.64;99300.13;10412525;28;20544;-72
2022/07/09 20:31:54;;;;;;;9.68;1.50;;;;;;;24.66;48.82;99371.00;10412942;28;20046;-72
2022/07/09 20:36:55;;;;;;;5.60;1.27;;;;;;;24.25;49.88;99333.25;10412718;28;20061;-71
2022/07/09 20:41:57;;;;;;;6.40;1.60;;;;;;;23.58;51.13;99238.75;10411108;28;20073;-70
2022/07/09 20:46:58;;;;;;;6.55;1.23;;;;;;;24.39;52.40;99385.81;10395916;28;20050;-71
2022/07/09 20:51:58;;;;;;;8.40;1.23;;;;;;;24.27;53.96;99385.38;10372642;28;20048;-72
2022/07/09 20:56:59;;;;;;;10.70;1.70;;;;;;;24.20;54.72;99382.13;10373452;28;20508;-72
2022/07/09 21:02:00;;;;;;;10.38;2.08;;;;;;;24.10;55.66;99372.16;10379937;28;20073;-72
2022/07/09 21:07:01;;;;;;;4.70;1.50;;;;;;;23.89;57.28;99379.63;10380171;28;20092;-72
2022/07/09 21:12:02;;;;;;;5.10;1.40;;;;;;;23.64;58.63;99359.63;10380369;28;20053;-72
2022/07/09 21:22:22;;;;;;;5.25;1.40;;;;;;;23.52;61.03;99370.00;10379889;28;20077;-72
2022/07/09 21:27:23;;;;;;;3.42;1.50;;;;;;;23.42;62.20;99370.03;10388157;28;20131;-71
2022/07/09 21:32:24;;;;;;;4.00;1.38;;;;;;;22.59;62.50;99241.31;10390611;28;20054;-72
2022/07/09 21:37:26;;;;;;;10.00;1.50;;;;;;;22.54;62.73;99242.13;10403972;28;20140;-70
2022/07/09 21:42:27;;;;;;;12.13;1.57;;;;;;;23.02;63.59;99350.09;10420496;28;20128;-72
2022/07/09 21:47:28;;;;;;;6.20;1.40;;;;;;;23.10;63.90;99363.09;10418970;28;20132;-71
2022/07/09 21:52:29;;;;;;;4.40;1.55;;;;;;;23.08;64.31;99380.69;10419390;28;20041;-71
2022/07/09 21:57:30;;;;;;;8.98;1.73;;;;;;;22.07;65.27;99210.75;10418980;28;20076;-72
2022/07/09 22:02:31;;;;;;;3.33;1.35;;;;;;;21.63;65.77;99145.63;10419363;28;20123;-71
2022/07/09 22:07:32;;;;;;;4.85;1.40;;;;;;;22.91;66.73;99362.78;10417289;28;20421;-72
2022/07/09 22:12:32;;;;;;;4.57;1.40;;;;;;;22.84;67.29;99354.16;10419022;28;20060;-72
2022/07/09 22:17:33;;;;;;;6.72;1.63;;;;;;;22.62;67.85;99327.38;10417692;28;20069;-72
2022/07/09 22:22:34;;;;;;;3.70;1.50;;;;;;;22.74;68.23;99346.84;10418504;28;20042;-72
2022/07/09 22:27:35;;;;;;;6.07;1.70;;;;;;;22.46;68.87;99313.03;10417206;28;20049;-72
2022/07/09 22:32:36;;;;;;;10.50;1.30;;;;;;;22.18;70.04;99292.75;10417611;28;20041;-73
2022/07/09 22:37:37;;;;;;;9.25;1.48;;;;;;;22.30;70.75;99320.34;10417879;28;20068;-69
2022/07/09 22:42:38;;;;;;;4.88;1.50;;;;;;;22.33;71.28;99346.06;10417537;28;20046;-73
2022/07/09 22:47:38;;;;;;;4.03;1.40;;;;;;;22.15;71.68;99317.59;10417777;28;20398;-72
2022/07/09 22:52:41;;;;;;;5.10;1.30;;;;;;;22.25;71.69;99336.56;10416412;28;20390;-72
2022/07/09 22:57:42;;;;;;;5.18;1.35;;;;;;;22.26;71.66;99330.09;10416173;28;20037;-74
2022/07/09 23:02:43;;;;;;;3.42;1.25;;;;;;;21.57;71.60;99219.66;10416187;28;20037;-72
2022/07/09 23:13:03;;;;;;;5.65;1.58;;;;;;;22.24;71.57;99324.13;10416429;28;20041;-72
2022/07/09 23:18:04;;;;;;;3.38;1.55;;;;;;;22.17;71.94;99314.69;10415219;28;20053;-71
2022/07/09 23:23:05;;;;;;;7.13;1.40;;;;;;;22.17;71.83;99331.72;10414176;28;20120;-72
2022/07/09 23:28:06;;;;;;;5.93;1.70;;;;;;;22.11;71.96;99330.84;10415266;28;20076;-73
2022/07/09 23:33:07;;;;;;;8.18;1.42;;;;;;;22.16;71.96;99334.63;10415655;28;20071;-72
2022/07/09 23:38:08;;;;;;;12.73;1.63;;;;;;;22.17;71.51;99333.59;10414403;28;20057;-72